Main page
Satellite images 15-day forecastsClimateMarine weather Cyclones Lightning AirportsFAQ Newsletter About
Weather : Europe Africa North America South America Asia Australia-Oceania Others
Languages Contact

Alpine, Texas, United States

Alpine-Casparis Municipal Airport

latitude: 30-23-03N, longitude: 103-41-00W, elevation: 1376 m


METAR: KE38 011255Z AUTO 22007KT 10SM CLR 10/03 A3032 RMK AO2 T00960030
TAF: missing

Time: 08:03 (13:03 UTC)

Current weather observation

The report was made 8 minutes ago, at 12:55 UTC
Wind 7 kt from the Southwest
Temperature 10°C
Humidity 62%
Pressure 1027 hPa
Visibility: 16.1 km
Clear sky

Change units
The information on this site is subject to a disclaimer
Weather : Europe Africa North America South America Asia Australia-Oceania Others
Satellite images 15-day forecastsClimateMarine weather Cyclones Lightning AirportsFAQ Languages Contact Newsletter About